Terminal Aerodrome Forecast
Issued by NWS

Current Version | Previous Version | Text Only | Print | Product List | Glossary On
Versions: 1 2 3 4 5 6 7 8 9 10 11 12
334
FTUS42 KGSP 301142
TAFAND
TAF
KAND 301142Z 3012/0112 05004KT P6SM SCT150 BKN250
     FM301700 16006KT P6SM VCTS SCT040CB BKN200
     FM302100 17009KT P6SM SCT040 BKN060
      TEMPO 3021/0101 4SM -TSRA OVC025CB
     FM010100 12003KT P6SM OVC050 PROB30 0101/0107 4SM -TSRA
      OVC025CB
     FM010700 15003KT 6SM BR OVC010=

USA.gov is the U.S. government's official web portal to all federal, state and local government web resources and services.